Aérodrome :
LOGIN :

S'inscrire | Disclaimer

   EN    FR    IT 

 










Légende :    VFR   VFR Marginal   IFR   IFR Intensif   IFR Très Intensif
Visi : 
Plafond : 
>= 8 km
>= 3000ft
5 à 8 km
1000 à 3000 ft
1500m à 5 km
500 à 1000 ft
800 à 1500m
200 à 500 ft
< 800m
< 200 ft
Symboles :   Orages  Brouillard  Fortes neiges  Fortes précipitations  Vent > 20 kt
SIGMETs :   Divers  Orages  Givrage  Turbulence  Onde Orograph.  Cendres Volcan.






- Altitude de l'aérodrome : 424 ft
- Code IATA : QGY


LHPR - Györ Per

DERNIER METAR :
  • 131745Z AUTO 36005KT CAVOK 21/07 Q1020

METARs EXPIRÉS :
  • 131715Z AUTO 01006KT CAVOK 21/07 Q1020
  • 131645Z AUTO 36009KT 280V030 CAVOK 22/06 Q1020 NOSIG
  • 131615Z AUTO 04004KT 350V110 CAVOK 22/06 Q1020 NOSIG
  • 131545Z AUTO 04007KT 010V070 CAVOK 22/06 Q1020 NOSIG
  • 131515Z AUTO 02010KT 360V060 CAVOK 22/05 Q1020 NOSIG

TAF TAF LHPR
Valide du 13 à 18h jusqu'au 14 à 03h UTC


131715Z 1318/1403 02008KT CAVOK
BECMG 1321/1324 VRB03KT



MET'MAP, la Météo Aéronautique d'un coup d'oeil ! - Copyright ORBIFLY Décembre 2007 - Disclaimer

ORBIFLY MET'MAP TEAM :

Programmation & Développement : Alexandra Zaïnal
Sur une idée originale de : Baudouin d'Aumeries
Assistance à la programmation : Marc-Olivier Méhu
Soutien technique & logistique : Manuel Goepfert

Contact : metmap@orbifly.com




SOURCES & CREDITS :

   NOAA